This is the latest recevied weather packets stored in our database for station/object N0TKN. If no packets are shown the sender has not sent any weather packets the latest 10 day(s).
| Time | Temp. | Humidity | Pressure | Rain* | Wind** | Luminosity | Snow |
|---|---|---|---|---|---|---|---|
| 1778203517 | 17.22° C | 51% | 1012.6 hPa | 0 mm | - | 1 W/m² | - |
| 1778202918 | 17.22° C | 51% | 1012.7 hPa | 0 mm | - | 2 W/m² | - |
| 1778202318 | 17.22° C | 51% | 1012.8 hPa | 0 mm | - | 6 W/m² | - |
| 1778201717 | 17.78° C | 49% | 1012.7 hPa | 0 mm | - | 12 W/m² | - |
| 1778201118 | 18.33° C | 48% | 1012.5 hPa | 0 mm | - | 20 W/m² | - |
| 1778200518 | 18.33° C | 47% | 1012.4 hPa | 0 mm | - | 27 W/m² | - |
| 1778199918 | 18.89° C | 46% | 1012.2 hPa | 0 mm | - | 33 W/m² | - |
| 1778199315 | 18.89° C | 44% | 1011.9 hPa | 0 mm | - | 40 W/m² | - |
| 1778198716 | 18.89° C | 43% | 1011.9 hPa | 0 mm | - | 74 W/m² | - |
| 1778198116 | 19.44° C | 43% | 1012 hPa | 0 mm | - | 51 W/m² | - |
| 1778197516 | 19.44° C | 43% | 1011.8 hPa | 0 mm | - | 80 W/m² | - |
| 1778196916 | 19.44° C | 42% | 1012 hPa | 0 mm | - | 66 W/m² | - |
| 1778196316 | 19.44° C | 42% | 1012.2 hPa | 0 mm | - | 80 W/m² | - |
| 1778195716 | 20° C | 42% | 1012.2 hPa | 0 mm | - | 143 W/m² | - |
| 1778195116 | 20° C | 41% | 1012.2 hPa | 0 mm | - | 133 W/m² | - |
| 1778194516 | 20.56° C | 40% | 1011.7 hPa | 0 mm | - | 313 W/m² | - |
| 1778193917 | 20.56° C | 40% | 1011.9 hPa | 0 mm | - | 341 W/m² | - |
| 1778193317 | 20° C | 40% | 1011.9 hPa | 0 mm | - | 381 W/m² | - |
| 1778192717 | 20° C | 40% | 1012.3 hPa | 0 mm | - | 279 W/m² | - |
| 1778192117 | 20° C | 41% | 1012 hPa | 0 mm | - | 448 W/m² | - |
| 1778191518 | 20.56° C | 40% | 1012.2 hPa | 0 mm | - | 415 W/m² | - |
| 1778190918 | 20.56° C | 40% | 1011.9 hPa | 0 mm | - | 552 W/m² | - |
| 1778190318 | 21.11° C | 39% | 1012.2 hPa | 0 mm | - | 321 W/m² | - |
| 1778189718 | 20.56° C | 39% | 1011.7 hPa | 0 mm | - | 620 W/m² | - |
| 1778189118 | 20.56° C | 39% | 1011.9 hPa | 0 mm | - | 634 W/m² | - |
* Rain latest hour (hover to see other rain measurements)
** Current wind speed in m/s (hover to see current wind gust speed)